Time;durP1;ratioP1;P1;durP2;ratioP2;P2;SDS_P1;SDS_P2;PMS_P1;PMS_P2;Temp;Humidity;BMP_temperature;BMP_pressure;BME280_temperature;BME280_humidity;BME280_pressure;Samples;Min_cycle;Max_cycle;Signal;HPM_P1;HPM_P2
2023/01/04 00:01:17;;;;;;;32.90;20.10;;;;;;;-0.25;91.61;100139.91;2251941;79;21340;-82
2023/01/04 00:04:18;;;;;;;33.67;18.53;;;;;;;-0.22;91.63;100136.28;2251920;79;21005;-81
2023/01/04 00:07:18;;;;;;;36.70;21.07;;;;;;;-0.19;91.61;100139.08;2252249;79;21124;-81
2023/01/04 00:10:18;;;;;;;32.53;19.73;;;;;;;-0.12;91.82;100136.19;2251570;79;20980;-82
2023/01/04 00:13:19;;;;;;;36.37;20.37;;;;;;;-0.09;91.53;100136.80;2251979;79;20960;-81
2023/01/04 00:16:19;;;;;;;33.17;19.63;;;;;;;-0.07;91.47;100137.41;2251230;79;20881;-82
2023/01/04 00:19:20;;;;;;;39.97;21.13;;;;;;;-0.03;91.46;100134.30;2251415;79;21361;-82
2023/01/04 00:22:20;;;;;;;35.57;20.97;;;;;;;0.01;91.35;100139.30;2251905;79;20959;-81
2023/01/04 00:25:20;;;;;;;33.50;19.50;;;;;;;0.03;91.32;100138.13;2251720;79;20968;-81
2023/01/04 00:28:21;;;;;;;33.03;20.50;;;;;;;0.08;91.42;100144.10;2251731;79;20949;-81
2023/01/04 00:31:21;;;;;;;34.50;20.60;;;;;;;0.18;91.75;100142.71;2251766;79;20929;-80
2023/01/04 00:34:22;;;;;;;31.30;18.93;;;;;;;0.25;91.27;100138.91;2251591;79;20964;-81
2023/01/04 00:37:22;;;;;;;35.07;18.47;;;;;;;0.30;91.42;100147.45;2251519;79;20878;-81
2023/01/04 00:40:22;;;;;;;32.80;20.00;;;;;;;0.38;91.31;100150.58;2214430;79;21003;-81
2023/01/04 00:43:23;;;;;;;34.80;18.30;;;;;;;0.46;91.61;100148.17;2204218;81;20960;-81
2023/01/04 00:46:23;;;;;;;29.83;18.13;;;;;;;0.55;91.66;100144.08;2240769;79;20920;-81
2023/01/04 00:49:24;;;;;;;30.77;18.73;;;;;;;0.64;91.78;100142.17;2251909;79;20889;-80
2023/01/04 00:52:24;;;;;;;29.80;18.40;;;;;;;0.73;91.95;100146.68;2251946;79;20885;-81
2023/01/04 00:55:25;;;;;;;28.90;17.13;;;;;;;0.82;92.04;100142.19;2252163;79;20948;-79
2023/01/04 00:58:25;;;;;;;29.40;17.27;;;;;;;0.89;91.87;100139.69;2254391;79;20972;-81
2023/01/04 01:01:25;;;;;;;29.87;17.93;;;;;;;0.94;91.84;100137.94;2249062;79;20905;-81
2023/01/04 01:04:26;;;;;;;31.03;18.73;;;;;;;0.99;91.70;100139.55;2241317;79;20952;-80
2023/01/04 01:07:26;;;;;;;31.20;19.07;;;;;;;1.34;96.17;100146.23;2241360;79;20961;-82
2023/01/04 01:10:27;;;;;;;28.77;17.97;;;;;;;1.44;92.62;100146.08;2241187;79;20968;-80
2023/01/04 01:13:27;;;;;;;32.97;19.10;;;;;;;1.38;91.58;100146.55;2241516;79;21262;-82
2023/01/04 01:16:27;;;;;;;33.03;18.77;;;;;;;1.38;91.58;100140.12;2241409;79;20972;-81
2023/01/04 01:19:28;;;;;;;30.07;18.63;;;;;;;1.40;91.62;100144.08;2241339;79;20902;-81
2023/01/04 01:22:28;;;;;;;33.60;19.90;;;;;;;1.43;91.83;100137.47;2241536;79;20961;-82
2023/01/04 01:25:29;;;;;;;30.13;18.83;;;;;;;1.47;91.60;100138.56;2241720;79;20854;-80
2023/01/04 01:28:29;;;;;;;30.37;18.60;;;;;;;1.46;91.38;100136.78;2241374;79;20940;-81
2023/01/04 01:31:29;;;;;;;24.67;17.00;;;;;;;1.46;91.22;100140.25;2241768;79;20962;-82
2023/01/04 01:34:30;;;;;;;28.73;18.17;;;;;;;1.46;91.22;100140.25;2241324;79;20933;-82
2023/01/04 01:37:30;;;;;;;24.00;17.00;;;;;;;1.52;91.51;100147.49;2241438;79;20894;-81
2023/01/04 01:40:31;;;;;;;28.80;17.53;;;;;;;1.56;91.29;100145.63;2241019;79;20999;-82
2023/01/04 01:43:34;;;;;;;27.30;16.67;;;;;;;1.50;90.86;100138.38;2241317;79;21369;-82
2023/01/04 01:46:34;;;;;;;26.60;17.80;;;;;;;1.47;90.86;100133.42;2241433;79;20929;-82
2023/01/04 01:49:37;;;;;;;30.57;16.93;;;;;;;1.49;90.83;100134.42;2241522;79;20952;-83
2023/01/04 01:52:38;;;;;;;28.03;17.57;;;;;;;1.52;91.03;100134.23;2241618;79;20909;-83
2023/01/04 01:55:38;;;;;;;28.23;16.70;;;;;;;1.56;91.28;100140.08;2241727;79;21362;-82
2023/01/04 01:58:39;;;;;;;26.83;15.80;;;;;;;1.59;91.29;100134.25;2251381;79;20933;-82
2023/01/04 02:01:39;;;;;;;31.77;16.27;;;;;;;1.62;91.07;100131.88;2255375;79;21308;-82
2023/01/04 02:04:39;;;;;;;27.77;16.03;;;;;;;1.63;91.00;100136.64;2254150;79;20916;-83
2023/01/04 02:07:40;;;;;;;28.03;15.40;;;;;;;1.64;90.99;100134.16;2241563;79;20906;-82
2023/01/04 02:10:40;;;;;;;24.60;15.90;;;;;;;1.63;90.83;100120.80;2241402;79;21005;-82
2023/01/04 02:17:00;;;;;;;27.10;17.23;;;;;;;1.60;90.73;100123.17;2241329;79;20984;-81
2023/01/04 02:20:03;;;;;;;23.97;15.47;;;;;;;1.57;90.94;100126.42;2241580;79;20933;-82
2023/01/04 02:23:03;;;;;;;24.73;16.60;;;;;;;1.56;90.66;100131.08;2240966;79;21000;-81
2023/01/04 02:26:03;;;;;;;24.57;16.00;;;;;;;1.54;90.76;100124.05;2241593;79;20937;-82
2023/01/04 02:29:04;;;;;;;27.67;15.77;;;;;;;1.52;90.66;100121.77;2241483;79;20946;-80
2023/01/04 02:32:04;;;;;;;29.63;16.50;;;;;;;1.45;90.61;100114.02;2241215;79;20921;-81
2023/01/04 02:35:04;;;;;;;29.63;17.10;;;;;;;1.34;90.27;100100.83;2241294;79;21289;-82
2023/01/04 02:38:05;;;;;;;24.90;16.67;;;;;;;1.24;89.88;100098.41;2241401;79;20968;-81
2023/01/04 02:41:05;;;;;;;24.67;17.20;;;;;;;1.24;89.88;100098.41;2241249;79;21011;-82
2023/01/04 02:50:43;;;;;;;26.83;16.37;;;;;;;0.89;89.59;100092.13;2241207;79;20917;-81
2023/01/04 02:53:43;;;;;;;26.53;15.53;;;;;;;0.72;89.83;100086.17;2241284;79;20913;-82
2023/01/04 02:56:44;;;;;;;24.20;15.07;;;;;;;0.59;89.13;100085.31;2241654;79;20925;-81
2023/01/04 02:59:44;;;;;;;30.57;16.07;;;;;;;0.43;89.21;100090.55;2255190;79;20953;-81
2023/01/04 03:06:15;;;;;;;22.07;15.13;;;;;;;0.22;89.26;100086.05;2248355;79;21325;-76
2023/01/04 03:09:16;;;;;;;25.90;16.47;;;;;;;0.11;89.23;100072.44;2237168;79;21418;-81
2023/01/04 03:12:31;;;;;;;29.30;17.27;;;;;;;0.03;89.13;100071.38;2238619;79;20964;-82
2023/01/04 03:15:32;;;;;;;27.90;17.10;;;;;;;0.01;91.01;100074.23;2241199;79;20937;-81
2023/01/04 03:18:32;;;;;;;27.07;16.27;;;;;;;0.00;90.08;100065.64;2241306;79;20921;-81
2023/01/04 03:21:32;;;;;;;27.97;15.73;;;;;;;-0.08;89.74;100064.16;2241324;79;20929;-82
2023/01/04 03:37:47;;;;;;;24.13;15.37;;;;;;;-0.49;89.48;100050.85;2241745;79;21273;-81
2023/01/04 03:50:44;;;;;;;22.40;15.00;;;;;;;-0.73;89.25;100032.86;2241403;79;20953;-82
2023/01/04 03:53:44;;;;;;;24.80;16.73;;;;;;;-0.78;89.52;100034.19;2242094;79;20941;-82
2023/01/04 03:56:44;;;;;;;24.03;15.97;;;;;;;-0.82;89.74;100035.12;2241283;79;21713;-81
2023/01/04 03:59:45;;;;;;;26.13;14.77;;;;;;;-0.85;89.72;100033.61;2253890;79;20944;-81
2023/01/04 04:02:47;;;;;;;27.97;15.03;;;;;;;-0.88;89.37;100027.83;2255006;79;20936;-81
2023/01/04 04:09:06;;;;;;;20.77;14.37;;;;;;;-0.94;89.26;100021.36;2252473;79;20873;-81
2023/01/04 04:12:06;;;;;;;25.27;15.70;;;;;;;-0.96;89.54;100019.95;2214389;80;20912;-81
2023/01/04 04:15:06;;;;;;;26.13;15.87;;;;;;;-0.95;89.63;100015.34;2244101;79;20897;-81
2023/01/04 04:18:07;;;;;;;23.90;14.93;;;;;;;-0.97;89.50;100010.09;2254750;79;20964;-82
2023/01/04 04:21:07;;;;;;;29.63;15.00;;;;;;;-0.98;89.61;100009.59;2254612;79;20909;-81
2023/01/04 04:24:08;;;;;;;24.80;14.50;;;;;;;-0.99;89.55;100004.34;2254927;79;20955;-80
2023/01/04 04:27:08;;;;;;;27.83;15.00;;;;;;;-1.05;89.30;100006.06;2254721;79;20921;-80
2023/01/04 04:30:09;;;;;;;25.67;15.10;;;;;;;-1.12;89.19;100004.20;2255219;79;20925;-81
2023/01/04 04:33:09;;;;;;;27.13;15.13;;;;;;;-1.15;89.37;99998.84;2255057;79;20983;-80
2023/01/04 04:36:10;;;;;;;21.87;14.53;;;;;;;-1.17;89.58;100000.01;2255057;79;21289;-83
2023/01/04 04:39:10;;;;;;;23.57;14.60;;;;;;;-1.17;89.77;99992.71;2254800;79;20992;-81
2023/01/04 04:42:10;;;;;;;28.73;13.57;;;;;;;-1.18;89.66;99993.48;2254803;79;20951;-82
2023/01/04 04:45:10;;;;;;;21.80;13.93;;;;;;;-1.23;89.36;99993.14;2254653;79;21316;-81
2023/01/04 04:48:12;;;;;;;21.17;14.00;;;;;;;-1.29;89.54;99986.27;2222876;79;21294;-82
2023/01/04 04:51:12;;;;;;;24.67;14.57;;;;;;;-1.33;89.44;99986.42;2254256;79;20913;-82
2023/01/04 04:54:13;;;;;;;23.50;14.53;;;;;;;-1.36;89.47;99981.06;2253793;79;20983;-80
2023/01/04 04:57:13;;;;;;;21.80;13.90;;;;;;;-1.39;89.47;99981.22;2253371;79;20984;-81
2023/01/04 05:00:13;;;;;;;20.57;13.17;;;;;;;-1.41;89.58;99984.05;2239977;79;21285;-82
2023/01/04 05:03:14;;;;;;;26.53;13.67;;;;;;;-1.42;89.67;99991.23;2219846;80;20974;-81
2023/01/04 05:06:14;;;;;;;26.93;15.83;;;;;;;-1.43;89.72;99981.38;2220177;80;20962;-84
2023/01/04 05:09:15;;;;;;;28.90;14.90;;;;;;;-1.43;89.52;99978.81;2219240;80;20939;-83
2023/01/04 05:15:36;;;;;;;24.10;14.93;;;;;;;-1.48;89.38;99968.99;2193768;80;21605;-84
2023/01/04 05:18:36;;;;;;;23.53;15.23;;;;;;;-1.51;89.24;99970.03;2218227;80;20903;-82
2023/01/04 05:21:37;;;;;;;24.07;14.33;;;;;;;-1.55;89.24;99963.79;2217957;80;20963;-84
2023/01/04 05:24:37;;;;;;;23.03;14.63;;;;;;;-1.58;88.96;99958.44;2217795;80;20950;-85
2023/01/04 05:27:37;;;;;;;24.07;14.00;;;;;;;-1.62;88.81;99964.09;2218234;80;20982;-84
2023/01/04 05:30:50;;;;;;;23.03;14.27;;;;;;;-1.63;88.64;99968.70;2219634;80;20915;-82
2023/01/04 05:33:50;;;;;;;27.43;14.83;;;;;;;-1.64;88.70;99963.08;2218823;80;20895;-79
2023/01/04 05:36:51;;;;;;;24.57;14.80;;;;;;;-1.67;88.82;99961.56;2219194;80;20982;-81
2023/01/04 05:39:51;;;;;;;24.37;15.93;;;;;;;-1.64;88.85;99964.36;2217817;80;21366;-81
2023/01/04 05:42:52;;;;;;;26.43;15.57;;;;;;;-1.65;88.76;99957.45;2218349;80;21029;-81
2023/01/04 05:45:52;;;;;;;29.87;16.80;;;;;;;-1.69;88.71;99958.00;2218595;80;20944;-82
2023/01/04 05:48:52;;;;;;;26.73;16.10;;;;;;;-1.67;89.14;99960.28;2218200;80;20907;-82
2023/01/04 05:51:53;;;;;;;29.17;15.60;;;;;;;-1.63;89.14;99954.63;2218328;80;21384;-83
2023/01/04 05:54:53;;;;;;;35.00;19.13;;;;;;;-1.67;88.85;99959.90;2220180;80;21719;-81
2023/01/04 05:57:54;;;;;;;31.37;17.93;;;;;;;-1.68;89.04;99954.66;2219841;78;20955;-81
2023/01/04 06:00:54;;;;;;;33.43;18.20;;;;;;;-1.69;89.11;99947.75;2223353;80;20953;-81
2023/01/04 06:03:54;;;;;;;30.33;17.70;;;;;;;-1.67;89.17;99953.89;2225422;80;20978;-81
2023/01/04 06:06:55;;;;;;;31.87;17.27;;;;;;;-1.70;88.86;99954.55;2225948;80;20919;-82
2023/01/04 06:09:55;;;;;;;45.57;22.93;;;;;;;-1.75;88.64;99945.58;2226035;80;20962;-84
2023/01/04 06:12:56;;;;;;;39.43;18.00;;;;;;;-1.77;88.96;99940.73;2226712;80;20923;-80
2023/01/04 06:15:56;;;;;;;35.83;17.13;;;;;;;-1.73;88.94;99936.77;2226957;80;20998;-83
2023/01/04 06:18:56;;;;;;;45.70;19.77;;;;;;;-1.78;88.49;99940.61;2226310;80;20934;-81
2023/01/04 06:21:57;;;;;;;48.63;18.73;;;;;;;-1.78;88.87;99937.66;2226444;80;20938;-82
2023/01/04 06:24:57;;;;;;;55.13;17.17;;;;;;;-1.73;88.89;99936.77;2226946;80;20954;-83
2023/01/04 06:27:58;;;;;;;39.27;18.43;;;;;;;-1.75;88.74;99935.34;2226759;80;21365;-81
2023/01/04 06:30:58;;;;;;;50.27;18.27;;;;;;;-1.77;88.67;99938.17;2225839;80;20917;-81
2023/01/04 06:33:58;;;;;;;31.17;18.07;;;;;;;-1.75;88.60;99928.94;2225056;80;20895;-83
2023/01/04 06:36:59;;;;;;;32.43;17.57;;;;;;;-1.75;88.21;99924.21;2225052;80;20966;-83
2023/01/04 06:39:59;;;;;;;38.07;19.37;;;;;;;-1.78;88.12;99922.31;2225682;80;20974;-81
2023/01/04 06:43:00;;;;;;;31.90;18.57;;;;;;;-1.77;88.03;99918.08;2225147;80;20997;-81
2023/01/04 06:46:00;;;;;;;28.80;17.60;;;;;;;-1.75;88.28;99924.21;2225922;80;20947;-82
2023/01/04 06:49:00;;;;;;;30.80;17.83;;;;;;;-1.73;87.98;99923.98;2225887;80;20930;-82
2023/01/04 06:52:01;;;;;;;51.50;18.50;;;;;;;-1.73;88.12;99913.73;2226158;80;21290;-82
2023/01/04 06:55:01;;;;;;;32.23;18.23;;;;;;;-1.71;87.96;99905.40;2226280;80;21022;-83
2023/01/04 06:58:02;;;;;;;34.77;17.13;;;;;;;-1.71;87.71;99905.78;2225243;80;21124;-83
2023/01/04 07:01:02;;;;;;;40.73;18.73;;;;;;;-1.70;87.71;99904.63;2235058;79;20990;-82
2023/01/04 07:04:02;;;;;;;38.83;19.00;;;;;;;-1.68;87.61;99906.02;2221698;80;20966;-84
2023/01/04 07:07:03;;;;;;;38.20;18.63;;;;;;;-1.66;87.81;99900.63;2221209;80;20884;-82
2023/01/04 07:10:03;;;;;;;49.00;22.73;;;;;;;-1.62;87.79;99898.42;2221299;80;21014;-84
2023/01/04 07:13:04;;;;;;;39.13;22.03;;;;;;;0.78;100.00;99888.70;2221646;80;20899;-82
2023/01/04 07:16:04;;;;;;;36.80;21.57;;;;;;;0.43;92.95;99887.22;2222149;80;20967;-85
2023/01/04 07:19:04;;;;;;;111.77;23.50;;;;;;;0.03;89.15;99887.84;2221726;80;20879;-79
2023/01/04 07:22:05;;;;;;;39.63;20.97;;;;;;;-0.24;87.90;99887.66;2221298;80;21299;-84
2023/01/04 07:25:05;;;;;;;39.47;21.10;;;;;;;-0.44;87.40;99882.39;2221588;80;21446;-84
2023/01/04 07:28:06;;;;;;;38.67;20.73;;;;;;;-0.57;87.01;99890.39;2221978;80;20915;-86
2023/01/04 07:31:06;;;;;;;36.00;21.20;;;;;;;-0.68;86.78;99885.38;2222483;80;21283;-85
2023/01/04 07:34:06;;;;;;;36.43;20.77;;;;;;;-0.75;86.85;99887.00;2222388;80;20876;-84
2023/01/04 07:37:10;;;;;;;32.33;20.80;;;;;;;-0.80;86.57;99881.03;2222001;80;20910;-85
2023/01/04 07:40:07;;;;;;;37.40;21.80;;;;;;;-0.83;86.98;99888.11;2221436;80;20923;-85
2023/01/04 07:43:08;;;;;;;34.53;22.20;;;;;;;-0.80;87.39;99893.47;2221889;80;21019;-84
2023/01/04 07:46:08;;;;;;;34.93;21.87;;;;;;;-0.73;87.54;99894.80;2221562;80;21298;-83
2023/01/04 07:49:08;;;;;;;39.30;24.03;;;;;;;-0.67;87.65;99888.44;2221822;80;20939;-85
2023/01/04 07:52:09;;;;;;;59.80;25.33;;;;;;;-0.61;87.64;99892.23;2222366;80;20943;-84
2023/01/04 07:55:09;;;;;;;40.77;23.67;;;;;;;-0.55;87.98;99891.39;2222052;80;20951;-83
2023/01/04 07:58:09;;;;;;;43.77;24.53;;;;;;;-0.45;87.81;99893.83;2221633;79;20922;-83
2023/01/04 08:01:10;;;;;;;44.50;23.57;;;;;;;-0.40;88.14;99893.38;2220976;80;20947;-85
2023/01/04 08:04:10;;;;;;;41.17;23.37;;;;;;;-0.27;88.35;99891.29;2222498;80;20919;-82
2023/01/04 08:07:11;;;;;;;43.83;22.17;;;;;;;-0.11;88.49;99889.02;2222668;80;20871;-85
2023/01/04 08:10:11;;;;;;;40.47;23.73;;;;;;;-0.06;87.89;99882.53;2222726;80;20978;-83
2023/01/04 08:13:12;;;;;;;49.77;25.60;;;;;;;0.02;88.07;99879.25;2222442;80;21640;-81
2023/01/04 08:16:12;;;;;;;56.30;26.77;;;;;;;0.15;88.31;99874.56;2221972;80;20986;-85
2023/01/04 08:19:12;;;;;;;65.23;25.90;;;;;;;0.33;88.70;99868.52;2221194;80;21438;-83
2023/01/04 08:22:13;;;;;;;45.10;25.90;;;;;;;0.44;88.38;99862.03;2222555;80;20960;-84
2023/01/04 08:25:13;;;;;;;46.57;26.53;;;;;;;0.60;88.59;99864.84;2221141;80;20942;-85
2023/01/04 08:28:14;;;;;;;80.57;26.73;;;;;;;0.76;88.68;99866.75;2221746;80;20923;-83
2023/01/04 08:31:14;;;;;;;41.27;25.23;;;;;;;0.89;88.49;99862.06;2221678;80;20880;-86
2023/01/04 08:34:19;;;;;;;42.80;26.33;;;;;;;1.02;88.73;99862.07;2221342;80;20963;-85
2023/01/04 08:37:18;;;;;;;44.57;27.93;;;;;;;1.15;88.73;99854.36;2197149;80;20872;-85
2023/01/04 08:40:18;;;;;;;39.87;25.20;;;;;;;1.24;88.86;99850.20;2222577;80;20872;-84
2023/01/04 08:43:19;;;;;;;79.73;28.17;;;;;;;1.40;88.86;99846.94;2222631;80;20931;-81
2023/01/04 08:46:19;;;;;;;44.20;25.97;;;;;;;1.50;88.99;99836.03;2222680;80;21628;-84
2023/01/04 08:49:19;;;;;;;74.40;26.43;;;;;;;1.62;88.91;99835.91;2221982;80;20947;-83
2023/01/04 08:52:20;;;;;;;45.17;26.77;;;;;;;1.75;89.02;99830.77;2221691;80;20944;-85
2023/01/04 08:55:20;;;;;;;49.63;28.23;;;;;;;1.88;89.10;99839.73;2221902;80;20907;-83
2023/01/04 08:58:21;;;;;;;44.57;27.50;;;;;;;2.04;89.13;99827.80;2222359;78;21576;-83
2023/01/04 09:01:21;;;;;;;47.40;27.37;;;;;;;2.12;89.08;99821.42;2230208;80;20958;-84
2023/01/04 09:04:21;;;;;;;42.67;25.27;;;;;;;2.25;89.42;99822.66;2225393;80;20949;-84
2023/01/04 09:07:22;;;;;;;43.13;24.67;;;;;;;2.35;89.41;99826.27;2225424;80;21374;-83
2023/01/04 09:10:22;;;;;;;40.77;25.73;;;;;;;2.47;89.35;99819.27;2225687;80;20974;-86
2023/01/04 09:13:23;;;;;;;61.67;29.90;;;;;;;2.58;89.26;99809.98;2225936;80;20938;-84
2023/01/04 09:16:23;;;;;;;56.53;35.30;;;;;;;2.72;90.36;99801.00;2225664;80;21663;-86
2023/01/04 09:19:23;;;;;;;59.70;35.43;;;;;;;2.93;90.48;99796.18;2226187;80;20919;-83
2023/01/04 09:22:24;;;;;;;62.10;36.00;;;;;;;3.14;91.05;99787.07;2225654;80;20962;-84
2023/01/04 09:25:24;;;;;;;66.40;35.93;;;;;;;3.41;91.56;99775.20;2225896;80;20986;-82
2023/01/04 09:28:25;;;;;;;66.27;35.83;;;;;;;3.67;91.75;99772.77;2225852;80;20942;-84
2023/01/04 09:31:25;;;;;;;57.90;35.60;;;;;;;3.98;91.71;99761.08;2226017;80;20979;-85
2023/01/04 09:34:27;;;;;;;59.60;35.27;;;;;;;4.20;91.12;99754.03;2176010;82;21066;-84
2023/01/04 09:37:28;;;;;;;52.43;33.77;;;;;;;4.39;90.83;99749.02;2217510;80;21022;-84
2023/01/04 09:40:28;;;;;;;59.70;34.10;;;;;;;4.55;90.44;99737.34;2225413;80;20902;-86
2023/01/04 09:43:28;;;;;;;55.63;34.40;;;;;;;4.76;90.30;99734.52;2225414;80;20946;-85
2023/01/04 09:46:29;;;;;;;55.37;33.13;;;;;;;4.91;89.68;99717.96;2225952;80;20993;-85
2023/01/04 09:49:32;;;;;;;49.83;31.33;;;;;;;5.03;89.36;99711.67;2226235;80;20961;-86
2023/01/04 09:52:34;;;;;;;50.87;30.20;;;;;;;5.11;88.94;99699.98;2194547;80;20962;-85
2023/01/04 09:55:35;;;;;;;48.77;30.37;;;;;;;5.21;88.59;99696.55;2227405;80;21066;-83
2023/01/04 09:58:35;;;;;;;49.10;28.63;;;;;;;5.26;88.16;99687.30;2226355;78;20981;-85
2023/01/04 10:01:37;;;;;;;52.00;30.10;;;;;;;5.34;88.25;99673.00;2193152;80;20993;-85
2023/01/04 10:04:38;;;;;;;45.43;27.20;;;;;;;5.40;88.04;99662.52;2216603;80;21009;-86
2023/01/04 10:07:38;;;;;;;41.37;25.33;;;;;;;5.52;87.68;99644.47;2216195;80;20962;-85
2023/01/04 10:10:39;;;;;;;49.27;26.67;;;;;;;5.59;87.11;99637.03;2216190;80;20923;-85
2023/01/04 10:13:39;;;;;;;43.37;26.33;;;;;;;5.69;87.19;99630.14;2216881;80;20986;-85
2023/01/04 10:16:40;;;;;;;42.73;29.00;;;;;;;5.78;86.36;99628.77;2216784;80;20990;-85
2023/01/04 10:19:40;;;;;;;44.40;26.17;;;;;;;5.83;86.05;99622.08;2216033;80;21381;-85
2023/01/04 10:22:41;;;;;;;40.90;25.77;;;;;;;5.89;85.93;99606.79;2214668;80;20986;-84
2023/01/04 10:25:43;;;;;;;34.40;22.93;;;;;;;5.97;85.77;99617.98;2179783;81;20982;-85
2023/01/04 10:28:43;;;;;;;32.40;21.33;;;;;;;6.04;85.37;99620.42;2209621;80;20966;-84
2023/01/04 10:31:44;;;;;;;32.77;18.93;;;;;;;6.16;84.76;99619.67;2214230;80;20926;-84
2023/01/04 10:34:44;;;;;;;29.57;18.53;;;;;;;6.24;83.87;99610.92;2215243;80;20960;-84
2023/01/04 10:37:44;;;;;;;32.03;16.93;;;;;;;6.30;83.30;99605.56;2215085;80;20951;-84
2023/01/04 10:40:45;;;;;;;28.73;15.67;;;;;;;6.42;83.25;99586.14;2215182;80;21760;-83
2023/01/04 10:43:45;;;;;;;21.60;14.30;;;;;;;6.50;81.91;99577.84;2214683;80;20935;-83
2023/01/04 10:46:46;;;;;;;23.07;13.87;;;;;;;6.59;80.89;99570.83;2213857;80;20946;-83
2023/01/04 10:49:48;;;;;;;18.87;12.90;;;;;;;6.70;80.43;99551.37;2214476;80;20887;-84
2023/01/04 10:52:46;;;;;;;18.97;12.13;;;;;;;6.81;79.25;99554.38;2213967;80;20923;-85
2023/01/04 10:55:47;;;;;;;17.07;11.77;;;;;;;6.84;78.37;99538.92;2214684;80;20954;-82
2023/01/04 10:58:47;;;;;;;15.27;11.20;;;;;;;6.93;78.90;99524.99;2217525;80;21405;-84
2023/01/04 11:01:48;;;;;;;21.07;11.43;;;;;;;7.01;77.21;99515.81;2237100;79;20938;-84
2023/01/04 11:04:48;;;;;;;18.73;10.93;;;;;;;7.06;77.64;99514.27;2237309;79;21005;-84
2023/01/04 11:07:50;;;;;;;15.37;10.40;;;;;;;7.09;77.47;99505.28;2216614;80;20922;-85
2023/01/04 11:10:51;;;;;;;16.50;11.77;;;;;;;7.11;76.27;99506.64;2235961;80;21048;-85
2023/01/04 11:13:51;;;;;;;18.53;10.03;;;;;;;7.08;76.44;99503.52;2235131;79;21678;-80
2023/01/04 11:16:52;;;;;;;20.40;10.30;;;;;;;7.03;75.24;99498.16;2236204;79;21678;-86
2023/01/04 11:19:52;;;;;;;17.90;11.03;;;;;;;7.05;75.03;99502.11;2234929;79;20989;-83
2023/01/04 11:22:53;;;;;;;20.20;10.67;;;;;;;7.02;74.59;99495.09;2235848;79;20925;-84
2023/01/04 11:25:53;;;;;;;31.23;11.80;;;;;;;7.02;76.18;99480.82;2236436;79;20887;-86
2023/01/04 11:28:53;;;;;;;16.47;11.20;;;;;;;7.07;75.43;99470.59;2236219;79;20926;-84
2023/01/04 11:31:54;;;;;;;20.40;12.17;;;;;;;7.11;74.81;99470.30;2236619;79;21298;-85
2023/01/04 11:34:56;;;;;;;21.20;11.63;;;;;;;7.20;75.62;99461.53;2236603;80;20969;-85
2023/01/04 11:37:55;;;;;;;15.20;10.60;;;;;;;7.28;75.60;99454.47;2236368;80;20981;-86
2023/01/04 11:40:55;;;;;;;19.23;10.93;;;;;;;7.35;74.41;99442.58;2237404;80;20966;-86
2023/01/04 11:43:55;;;;;;;19.60;10.30;;;;;;;7.34;74.43;99431.31;2236797;80;21020;-86
2023/01/04 11:46:56;;;;;;;19.10;11.00;;;;;;;7.35;73.43;99419.20;2236705;80;20941;-84
2023/01/04 11:49:56;;;;;;;17.60;10.03;;;;;;;7.35;73.19;99425.70;2236528;80;20974;-81
2023/01/04 11:52:57;;;;;;;18.20;10.40;;;;;;;7.38;74.21;99420.61;2235985;79;21001;-82
2023/01/04 11:55:57;;;;;;;19.33;10.57;;;;;;;7.39;72.85;99421.08;2235956;80;20906;-85
2023/01/04 11:58:57;;;;;;;14.60;9.53;;;;;;;7.40;72.72;99411.57;2234240;79;20974;-84
2023/01/04 12:01:58;;;;;;;15.60;10.30;;;;;;;7.38;72.85;99411.94;2211753;80;21026;-83
2023/01/04 12:04:58;;;;;;;18.17;10.50;;;;;;;7.30;73.04;99407.78;2217244;80;20931;-84
2023/01/04 12:07:59;;;;;;;19.87;10.70;;;;;;;7.28;72.83;99405.13;2217643;80;21279;-85
2023/01/04 12:10:59;;;;;;;14.67;10.07;;;;;;;7.25;72.95;99402.84;2217706;80;21022;-85
2023/01/04 12:13:59;;;;;;;17.13;9.93;;;;;;;7.20;73.49;99391.42;2217424;80;21360;-85
2023/01/04 12:17:00;;;;;;;19.50;10.20;;;;;;;7.16;73.33;99383.95;2218462;80;20927;-85
2023/01/04 12:20:00;;;;;;;20.47;10.40;;;;;;;7.15;73.74;99373.52;2217835;80;20970;-86
2023/01/04 12:23:01;;;;;;;19.50;9.40;;;;;;;7.07;73.17;99364.59;2217487;80;20934;-79
2023/01/04 12:26:01;;;;;;;17.20;9.97;;;;;;;6.97;73.54;99352.59;2218131;80;21387;-80
2023/01/04 12:29:02;;;;;;;13.93;9.37;;;;;;;6.91;73.62;99345.86;2219080;80;20880;-83
2023/01/04 12:32:02;;;;;;;13.20;8.53;;;;;;;6.86;73.83;99338.34;2218632;80;21413;-83
2023/01/04 12:35:02;;;;;;;11.70;8.07;;;;;;;6.82;73.75;99330.39;2219201;80;20995;-84
2023/01/04 12:38:03;;;;;;;15.77;7.93;;;;;;;6.78;73.75;99324.22;2219635;80;20911;-84
2023/01/04 12:41:03;;;;;;;14.13;7.90;;;;;;;6.72;73.89;99312.33;2220005;80;21409;-83
2023/01/04 12:44:03;;;;;;;11.30;7.57;;;;;;;6.71;74.09;99293.70;2218055;80;20959;-83
2023/01/04 12:50:26;;;;;;;17.70;9.37;;;;;;;6.71;74.33;99281.61;2216968;80;20975;-84
2023/01/04 12:53:23;;;;;;;16.10;9.63;;;;;;;6.76;74.58;99277.00;2216845;80;20927;-84
2023/01/04 12:56:23;;;;;;;19.87;9.70;;;;;;;6.79;74.04;99273.20;2218064;80;20969;-83
2023/01/04 12:59:24;;;;;;;13.80;9.03;;;;;;;6.83;74.09;99256.48;2219278;79;20903;-84
2023/01/04 13:02:24;;;;;;;13.93;8.67;;;;;;;6.87;73.74;99249.27;2222958;80;21314;-83
2023/01/04 13:05:24;;;;;;;13.07;9.07;;;;;;;6.88;73.60;99251.45;2234358;79;20927;-85
2023/01/04 13:08:32;;;;;;;17.10;8.27;;;;;;;6.85;73.33;99234.07;2252657;79;20885;-84
2023/01/04 13:11:27;;;;;;;14.77;8.00;;;;;;;6.82;73.09;99232.67;2219910;79;21308;-81
2023/01/04 13:14:28;;;;;;;12.00;7.87;;;;;;;6.78;72.91;99224.73;2250851;79;20964;-82
2023/01/04 13:17:28;;;;;;;9.33;6.77;;;;;;;6.76;72.90;99220.80;2250535;79;20952;-82
2023/01/04 13:20:29;;;;;;;13.80;8.43;;;;;;;6.70;72.33;99214.11;2250634;79;20909;-79
2023/01/04 13:23:29;;;;;;;12.40;6.77;;;;;;;6.63;73.12;99203.06;2249819;79;21746;-81
2023/01/04 13:26:29;;;;;;;16.77;8.10;;;;;;;6.58;72.79;99196.43;2250250;79;20981;-81
2023/01/04 13:29:29;;;;;;;14.23;8.57;;;;;;;6.53;72.74;99184.14;2250441;79;20896;-80
2023/01/04 13:32:30;;;;;;;13.33;7.90;;;;;;;6.48;73.47;99184.41;2249329;79;20932;-80
2023/01/04 13:35:30;;;;;;;13.00;7.63;;;;;;;6.43;73.31;99168.69;2250178;79;20953;-81
2023/01/04 13:38:31;;;;;;;30.00;8.27;;;;;;;6.39;72.97;99170.72;2250791;79;20932;-82
2023/01/04 13:41:31;;;;;;;14.73;8.10;;;;;;;6.37;73.20;99162.89;2251595;79;20865;-81
2023/01/04 13:44:32;;;;;;;13.50;8.30;;;;;;;6.37;73.86;99159.41;2251866;79;21363;-83
2023/01/04 13:47:32;;;;;;;13.67;8.70;;;;;;;6.34;73.08;99153.70;2251796;79;20956;-83
2023/01/04 13:50:33;;;;;;;14.63;9.00;;;;;;;6.32;73.54;99150.60;2252616;79;21253;-82
2023/01/04 13:53:33;;;;;;;11.27;7.20;;;;;;;6.28;73.58;99145.73;2252055;79;20897;-81
2023/01/04 13:56:33;;;;;;;15.90;9.23;;;;;;;6.28;73.49;99140.95;2251935;79;20893;-80
2023/01/04 13:59:34;;;;;;;13.60;8.63;;;;;;;6.28;73.56;99143.14;2251773;79;20917;-80
2023/01/04 14:02:34;;;;;;;17.60;8.00;;;;;;;6.27;73.57;99132.30;2247414;79;20936;-80
2023/01/04 14:05:35;;;;;;;11.07;7.83;;;;;;;6.28;73.78;99124.98;2238999;79;20917;-81
2023/01/04 14:08:35;;;;;;;15.10;7.80;;;;;;;6.30;73.53;99118.56;2238835;79;20928;-80
2023/01/04 14:14:54;;;;;;;10.40;6.90;;;;;;;6.26;73.72;99107.20;2238340;79;20917;-81
2023/01/04 14:17:55;;;;;;;9.93;6.47;;;;;;;6.25;73.88;99105.86;2238780;79;20890;-80
2023/01/04 14:20:55;;;;;;;10.07;6.83;;;;;;;6.25;73.36;99096.38;2237361;79;21310;-80
2023/01/04 14:23:55;;;;;;;9.20;5.93;;;;;;;6.27;73.42;99096.00;2236379;79;20983;-82
2023/01/04 14:26:56;;;;;;;11.10;6.80;;;;;;;6.24;73.08;99085.54;2236699;79;20952;-81
2023/01/04 14:29:56;;;;;;;10.83;5.70;;;;;;;6.26;73.30;99078.69;2236572;79;20881;-80
2023/01/04 14:32:57;;;;;;;9.80;5.40;;;;;;;6.26;72.93;99068.32;2236703;79;20895;-82
2023/01/04 14:35:57;;;;;;;14.00;6.40;;;;;;;6.28;72.93;99068.38;2236802;79;20902;-80
2023/01/04 14:39:00;;;;;;;14.37;6.83;;;;;;;6.27;72.64;99061.02;2236784;79;20954;-82
2023/01/04 14:42:01;;;;;;;12.50;6.90;;;;;;;6.27;72.80;99057.13;2237411;79;20905;-81
2023/01/04 14:45:01;;;;;;;13.90;5.80;;;;;;;6.26;72.99;99059.25;2237482;79;21493;-81